Time;durP1;ratioP1;P1;durP2;ratioP2;P2;SDS_P1;SDS_P2;PMS_P1;PMS_P2;Temp;Humidity;BMP_temperature;BMP_pressure;BME280_temperature;BME280_humidity;BME280_pressure;Samples;Min_cycle;Max_cycle;Signal;HPM_P1;HPM_P2
2024/04/12 00:01:17;;;;;;;9.30;2.28;;;;;;;;;;5368916;26;20015;-65
2024/04/12 00:03:45;;;;;;;5.47;2.25;;;;;;;;;;5379555;26;20008;-65
2024/04/12 00:06:20;;;;;;;4.28;2.10;;;;;;;;;;5381600;26;20074;-66
2024/04/12 00:08:49;;;;;;;9.27;2.25;;;;;;;;;;5382960;26;20004;-66
2024/04/12 00:11:16;;;;;;;7.35;2.42;;;;;;;;;;5382524;26;20015;-67
2024/04/12 00:13:53;;;;;;;6.45;2.50;;;;;;;;;;5373381;26;20285;-66
2024/04/12 00:16:24;;;;;;;8.45;2.60;;;;;;;;;;5347685;26;20001;-66
2024/04/12 00:19:12;;;;;;;8.48;2.75;;;;;;;;;;5356678;26;20008;-67
2024/04/12 00:21:41;;;;;;;6.32;2.95;;;;;;;;;;5381497;26;20000;-66
2024/04/12 00:24:10;;;;;;;6.22;2.90;;;;;;;;;;5381862;26;20361;-68
2024/04/12 00:26:36;;;;;;;8.38;2.60;;;;;;;;;;5380176;26;20395;-68
2024/04/12 00:29:01;;;;;;;9.80;2.88;;;;;;;;;;5363196;26;20012;-67
2024/04/12 00:31:27;;;;;;;8.43;2.55;;;;;;;;;;5346537;26;20001;-67
2024/04/12 00:33:55;;;;;;;6.85;2.70;;;;;;;;;;5346505;26;20008;-65
2024/04/12 00:36:24;;;;;;;8.48;2.53;;;;;;;;;;5346327;26;20013;-66
2024/04/12 00:38:50;;;;;;;9.57;3.05;;;;;;;;;;5345187;26;20013;-65
2024/04/12 00:41:15;;;;;;;6.07;2.90;;;;;;;;;;5345566;26;19997;-66
2024/04/12 00:43:53;;;;;;;6.40;2.80;;;;;;;;;;5364176;26;20008;-66
2024/04/12 00:46:23;;;;;;;8.90;2.53;;;;;;;;;;5382052;26;20011;-65
2024/04/12 00:48:51;;;;;;;6.40;2.80;;;;;;;;;;5383433;26;20004;-66
2024/04/12 00:51:17;;;;;;;7.68;2.65;;;;;;;;;;5381831;26;20004;-66
2024/04/12 00:53:46;;;;;;;6.32;2.42;;;;;;;;;;5361544;26;20009;-65
2024/04/12 00:56:13;;;;;;;7.13;2.92;;;;;;;;;;5348107;26;20077;-67
2024/04/12 00:58:41;;;;;;;6.15;2.70;;;;;;;;;;5366921;26;20051;-68
2024/04/12 01:01:16;;;;;;;8.50;2.70;;;;;;;;;;5381609;26;19996;-67
2024/04/12 01:03:45;;;;;;;;;;;;;;;;;;5381332;26;20292;-66
2024/04/12 01:06:17;;;;;;;5.45;2.55;;;;;;;;;;5382737;26;19933;-66
2024/04/12 01:08:46;;;;;;;7.95;2.70;;;;;;;;;;5378587;26;20024;-66
2024/04/12 01:11:12;;;;;;;5.15;2.70;;;;;;;;;;5382046;26;20345;-66
2024/04/12 01:13:38;;;;;;;6.57;2.92;;;;;;;;;;5328549;26;20009;-65
2024/04/12 01:16:06;;;;;;;9.80;3.30;;;;;;;;;;5347166;26;20315;-67
2024/04/12 01:18:35;;;;;;;5.90;2.70;;;;;;;;;;5369031;26;20000;-65
2024/04/12 01:21:09;;;;;;;7.82;2.67;;;;;;;;;;5382420;26;20435;-65
2024/04/12 01:23:36;;;;;;;6.18;3.05;;;;;;;;;;5383133;26;20070;-66
2024/04/12 01:26:01;;;;;;;5.28;3.08;;;;;;;;;;5381248;26;20391;-67
2024/04/12 01:28:27;;;;;;;10.95;3.10;;;;;;;;;;5356036;26;20015;-67
2024/04/12 01:30:59;;;;;;;6.32;3.30;;;;;;;;;;5345732;26;20291;-65
2024/04/12 01:33:25;;;;;;;5.15;2.83;;;;;;;;;;5347742;26;19994;-66
2024/04/12 01:35:52;;;;;;;8.20;3.05;;;;;;;;;;5344484;26;20012;-65
2024/04/12 01:38:20;;;;;;;7.05;2.97;;;;;;;;;;5346130;26;19997;-66
2024/04/12 01:40:57;;;;;;;6.00;2.97;;;;;;;;;;5353183;26;20009;-67
2024/04/12 01:43:26;;;;;;;8.50;3.33;;;;;;;;;;5382242;26;20008;-65
2024/04/12 01:45:55;;;;;;;7.45;3.30;;;;;;;;;;5380911;26;20004;-66
2024/04/12 01:48:22;;;;;;;5.97;3.42;;;;;;;;;;5381241;26;20008;-67
2024/04/12 01:50:51;;;;;;;6.05;3.67;;;;;;;;;;5382003;26;20000;-66
2024/04/12 01:53:17;;;;;;;8.10;3.40;;;;;;;;;;5380385;26;20033;-66
2024/04/12 01:55:45;;;;;;;10.70;3.97;;;;;;;;;;5368787;26;20289;-66
2024/04/12 01:58:11;;;;;;;6.85;3.70;;;;;;;;;;5347227;26;20000;-67
2024/04/12 02:00:36;;;;;;;8.70;3.60;;;;;;;;;;5353060;26;20250;-66
2024/04/12 02:03:02;;;;;;;7.50;3.92;;;;;;;;;;5347338;26;20005;-66
2024/04/12 02:05:34;;;;;;;10.35;4.20;;;;;;;;;;5345564;26;20013;-65
2024/04/12 02:08:07;;;;;;;12.93;4.30;;;;;;;;;;5343913;26;20307;-65
2024/04/12 02:10:34;;;;;;;11.65;4.38;;;;;;;;;;5357109;26;20015;-66
2024/04/12 02:12:59;;;;;;;10.90;4.93;;;;;;;;;;5381238;26;20011;-66
2024/04/12 02:15:25;;;;;;;10.10;4.47;;;;;;;;;;5380710;26;20000;-65
2024/04/12 02:17:57;;;;;;;12.32;5.03;;;;;;;;;;5380538;26;20346;-64
2024/04/12 02:20:45;;;;;;;12.02;4.47;;;;;;;;;;5379330;26;19996;-68
2024/04/12 02:23:14;;;;;;;12.73;4.70;;;;;;;;;;5376678;26;20048;-66
2024/04/12 02:25:41;;;;;;;12.13;4.75;;;;;;;;;;5317403;26;20071;-65
2024/04/12 02:28:08;;;;;;;13.00;4.70;;;;;;;;;;5343424;26;19997;-66
2024/04/12 02:30:57;;;;;;;8.93;4.32;;;;;;;;;;5346238;26;20012;-65
2024/04/12 02:33:32;;;;;;;11.60;4.70;;;;;;;;;;5343496;26;20412;-65
2024/04/12 02:36:02;;;;;;;10.85;4.10;;;;;;;;;;5344481;26;20075;-67
2024/04/12 02:38:28;;;;;;;8.35;4.35;;;;;;;;;;5350879;26;20015;-66
2024/04/12 02:40:57;;;;;;;11.20;4.13;;;;;;;;;;5379720;26;20668;-66
2024/04/12 02:43:24;;;;;;;14.15;4.50;;;;;;;;;;5380992;26;19997;-67
2024/04/12 02:45:53;;;;;;;9.52;4.57;;;;;;;;;;5380324;26;20000;-66
2024/04/12 02:48:20;;;;;;;9.05;4.05;;;;;;;;;;5371474;26;20000;-66
2024/04/12 02:50:53;;;;;;;11.68;3.92;;;;;;;;;;5344270;26;20001;-65
2024/04/12 02:53:19;;;;;;;10.88;4.05;;;;;;;;;;5352617;26;20431;-66
2024/04/12 02:55:47;;;;;;;9.93;4.10;;;;;;;;;;5379993;26;20047;-66
2024/04/12 02:58:13;;;;;;;9.25;3.90;;;;;;;;;;5380747;26;20008;-66
2024/04/12 03:00:39;;;;;;;7.68;3.70;;;;;;;;;;5381148;26;20283;-66
2024/04/12 03:03:05;;;;;;;8.13;3.85;;;;;;;;;;5377816;26;20000;-66
2024/04/12 03:05:32;;;;;;;11.73;3.70;;;;;;;;;;5379160;26;20011;-68
2024/04/12 03:08:00;;;;;;;11.90;3.97;;;;;;;;;;5372780;26;20019;-66
2024/04/12 03:10:32;;;;;;;10.02;3.80;;;;;;;;;;5378482;26;20011;-67
2024/04/12 03:12:59;;;;;;;7.40;3.17;;;;;;;;;;5379576;26;20015;-67
2024/04/12 03:15:27;;;;;;;7.07;3.67;;;;;;;;;;5368282;26;20068;-65
2024/04/12 03:17:52;;;;;;;9.25;3.45;;;;;;;;;;5346207;26;20001;-65
2024/04/12 03:20:21;;;;;;;7.88;3.10;;;;;;;;;;5345502;26;20005;-65
2024/04/12 03:22:46;;;;;;;6.45;2.95;;;;;;;;;;5351044;26;20029;-66
2024/04/12 03:25:12;;;;;;;6.55;2.70;;;;;;;;;;5380655;26;20055;-67
2024/04/12 03:27:38;;;;;;;13.75;3.08;;;;;;;;;;5379238;26;20403;-66
2024/04/12 03:30:13;;;;;;;7.55;3.42;;;;;;;;;;5377096;26;19996;-66
2024/04/12 03:32:45;;;;;;;8.20;2.97;;;;;;;;;;5350520;26;20019;-66
2024/04/12 03:35:16;;;;;;;8.18;3.25;;;;;;;;;;5348076;26;20001;-65
2024/04/12 03:38:24;;;;;;;9.00;3.10;;;;;;;;;;5358574;26;20016;-65
2024/04/12 03:40:30;;;;;;;9.35;3.15;;;;;;;;;;5382957;26;20123;-65
2024/04/12 03:43:02;;;;;;;12.77;3.15;;;;;;;;;;5361113;26;19997;-66
2024/04/12 03:45:31;;;;;;;8.52;2.78;;;;;;;;;;5348171;26;20408;-65
2024/04/12 03:47:57;;;;;;;12.25;3.00;;;;;;;;;;5346832;26;20012;-65
2024/04/12 03:50:30;;;;;;;4.57;2.40;;;;;;;;;;5345923;26;20016;-66
2024/04/12 03:52:56;;;;;;;11.93;2.80;;;;;;;;;;5361145;26;20004;-65
2024/04/12 03:55:21;;;;;;;8.52;2.80;;;;;;;;;;5381905;26;20395;-66
2024/04/12 03:57:47;;;;;;;8.48;2.92;;;;;;;;;;5382556;26;20011;-68
2024/04/12 04:00:12;;;;;;;10.48;2.65;;;;;;;;;;5383052;26;20012;-65
2024/04/12 04:02:41;;;;;;;7.43;2.70;;;;;;;;;;5382136;26;20011;-65
2024/04/12 04:05:14;;;;;;;7.80;3.00;;;;;;;;;;5381425;26;20403;-66
2024/04/12 04:07:41;;;;;;;8.25;2.80;;;;;;;;;;5366532;26;20373;-65
2024/04/12 04:10:12;;;;;;;9.07;2.65;;;;;;;;;;5347735;26;20044;-64
2024/04/12 04:12:45;;;;;;;9.00;3.08;;;;;;;;;;5344952;26;19997;-65
2024/04/12 04:15:11;;;;;;;6.50;2.55;;;;;;;;;;5347378;26;19996;-66
2024/04/12 04:17:36;;;;;;;7.60;3.00;;;;;;;;;;5347282;26;20415;-65
2024/04/12 04:20:06;;;;;;;15.98;2.92;;;;;;;;;;5347776;26;20313;-66
2024/04/12 04:25:00;;;;;;;9.68;3.00;;;;;;;;;;5383225;26;20001;-65
2024/04/12 04:27:25;;;;;;;8.88;2.80;;;;;;;;;;5382261;26;20303;-66
2024/04/12 04:29:51;;;;;;;9.93;3.10;;;;;;;;;;5351408;26;20015;-67
2024/04/12 04:32:20;;;;;;;9.52;2.60;;;;;;;;;;5366047;26;20000;-66
2024/04/12 04:34:46;;;;;;;8.63;2.80;;;;;;;;;;5347143;26;20001;-67
2024/04/12 04:37:12;;;;;;;9.30;3.50;;;;;;;;;;5363124;26;20334;-67
2024/04/12 04:39:38;;;;;;;8.80;3.00;;;;;;;;;;5381382;26;20004;-66
2024/04/12 04:42:05;;;;;;;8.48;2.90;;;;;;;;;;5380368;26;20000;-66
2024/04/12 04:44:31;;;;;;;10.90;3.20;;;;;;;;;;5381867;26;20011;-65
2024/04/12 04:46:57;;;;;;;6.18;2.70;;;;;;;;;;5382969;26;20005;-65
2024/04/12 04:49:26;;;;;;;7.18;3.08;;;;;;;;;;5380156;26;20125;-65
2024/04/12 04:51:51;;;;;;;8.88;3.17;;;;;;;;;;5365628;26;20032;-67
2024/04/12 04:54:21;;;;;;;6.25;3.15;;;;;;;;;;5346546;26;20001;-66
2024/04/12 04:56:48;;;;;;;4.82;3.17;;;;;;;;;;5347839;26;20146;-66
2024/04/12 04:59:16;;;;;;;7.63;2.97;;;;;;;;;;5365909;26;20066;-66
2024/04/12 05:01:52;;;;;;;7.90;3.60;;;;;;;;;;5381568;26;20007;-66
2024/04/12 05:04:21;;;;;;;9.38;3.08;;;;;;;;;;5383309;26;20011;-67
2024/04/12 05:06:53;;;;;;;7.63;2.90;;;;;;;;;;5363541;26;20005;-65
2024/04/12 05:09:19;;;;;;;11.77;3.30;;;;;;;;;;5346832;26;20001;-65
2024/04/12 05:11:45;;;;;;;8.10;2.90;;;;;;;;;;5345771;26;20041;-67
2024/04/12 05:14:46;;;;;;;6.90;3.05;;;;;;;;;;5348144;26;20005;-65
2024/04/12 05:17:04;;;;;;;7.50;3.20;;;;;;;;;;5346505;26;20001;-65
2024/04/12 05:19:31;;;;;;;8.23;3.00;;;;;;;;;;5346532;26;20001;-66
2024/04/12 05:21:59;;;;;;;7.55;2.97;;;;;;;;;;5372358;26;20008;-67
2024/04/12 05:24:24;;;;;;;8.18;3.22;;;;;;;;;;5382356;26;20007;-67
2024/04/12 05:27:01;;;;;;;7.38;3.00;;;;;;;;;;5381875;26;20012;-66
2024/04/12 05:29:28;;;;;;;8.23;3.17;;;;;;;;;;5379495;26;20011;-66
2024/04/12 05:31:56;;;;;;;10.48;3.05;;;;;;;;;;5382699;26;20015;-67
2024/04/12 05:34:22;;;;;;;10.50;3.20;;;;;;;;;;5382371;26;20382;-68
2024/04/12 05:36:48;;;;;;;12.43;3.80;;;;;;;;;;5353905;26;20076;-67
2024/04/12 05:39:13;;;;;;;8.43;3.03;;;;;;;;;;5344697;26;20346;-67
2024/04/12 05:41:40;;;;;;;9.40;3.47;;;;;;;;;;5345847;26;20100;-66
2024/04/12 05:44:08;;;;;;;13.48;3.65;;;;;;;;;;5357198;26;20068;-62
2024/04/12 05:46:34;;;;;;;11.73;3.17;;;;;;;;;;5381483;26;20004;-62
2024/04/12 05:49:09;;;;;;;12.18;3.50;;;;;;;;;;5381772;26;20072;-65
2024/04/12 05:51:41;;;;;;;9.57;3.63;;;;;;;;;;5354401;26;20017;-62
2024/04/12 05:54:16;;;;;;;10.43;3.50;;;;;;;;;;5372290;26;20004;-62
2024/04/12 05:56:46;;;;;;;8.43;3.22;;;;;;;;;;5381272;26;20337;-62
2024/04/12 05:59:15;;;;;;;6.97;3.00;;;;;;;;;;5380924;26;20016;-62
2024/04/12 06:01:43;;;;;;;11.05;3.63;;;;;;;;;;5381961;26;20004;-62
2024/04/12 06:04:19;;;;;;;10.80;3.47;;;;;;;;;;5380465;26;20076;-61
2024/04/12 06:06:48;;;;;;;9.68;3.45;;;;;;;;;;5345513;26;20879;-61
2024/04/12 06:09:23;;;;;;;9.20;3.60;;;;;;;;;;5360614;26;20004;-62
2024/04/12 06:11:50;;;;;;;6.68;3.20;;;;;;;;;;5378910;26;20016;-62
2024/04/12 06:14:16;;;;;;;11.50;3.47;;;;;;;;;;5381399;26;20032;-62
2024/04/12 06:16:41;;;;;;;11.95;3.55;;;;;;;;;;5380594;26;20403;-62
2024/04/12 06:19:07;;;;;;;13.13;3.40;;;;;;;;;;5377463;26;20020;-62
2024/04/12 06:21:32;;;;;;;7.03;3.38;;;;;;;;;;5381262;26;20285;-61
2024/04/12 06:23:58;;;;;;;11.70;3.58;;;;;;;;;;5380734;26;19996;-63
2024/04/12 06:26:24;;;;;;;11.20;3.13;;;;;;;;;;5381416;26;19996;-63
2024/04/12 06:28:49;;;;;;;11.57;3.10;;;;;;;;;;5381480;26;20329;-62
2024/04/12 06:31:20;;;;;;;7.85;3.55;;;;;;;;;;5380412;26;20100;-62
2024/04/12 06:33:52;;;;;;;11.55;3.75;;;;;;;;;;5368254;26;20001;-61
2024/04/12 06:36:17;;;;;;;7.78;3.10;;;;;;;;;;5359135;26;20477;-62
2024/04/12 06:38:43;;;;;;;9.60;3.33;;;;;;;;;;5379897;26;20004;-61
2024/04/12 06:41:10;;;;;;;8.95;2.97;;;;;;;;;;5380679;26;20402;-61
2024/04/12 06:43:42;;;;;;;10.40;3.10;;;;;;;;;;5380887;26;20396;-62
2024/04/12 06:46:08;;;;;;;9.68;3.40;;;;;;;;;;5378460;26;20318;-62
2024/04/12 06:48:34;;;;;;;11.27;2.80;;;;;;;;;;5361426;26;20404;-62
2024/04/12 06:51:00;;;;;;;6.65;2.78;;;;;;;;;;5346528;26;19997;-61
2024/04/12 06:53:25;;;;;;;8.52;2.85;;;;;;;;;;5345049;26;20068;-62
2024/04/12 06:55:57;;;;;;;11.52;2.88;;;;;;;;;;5345492;26;20075;-62
2024/04/12 06:58:24;;;;;;;11.93;2.67;;;;;;;;;;5346149;26;20075;-61
2024/04/12 07:00:53;;;;;;;8.65;2.90;;;;;;;;;;5345701;26;20001;-63
2024/04/12 07:03:22;;;;;;;8.18;2.58;;;;;;;;;;5345108;26;20077;-63
2024/04/12 07:05:53;;;;;;;6.13;2.65;;;;;;;;;;5343975;26;19997;-62
2024/04/12 07:08:22;;;;;;;6.95;2.20;;;;;;;;;;5346118;26;20005;-62
2024/04/12 07:10:50;;;;;;;10.43;3.00;;;;;;;;;;5347644;26;20099;-62
2024/04/12 07:13:16;;;;;;;7.05;2.70;;;;;;;;;;5345072;26;20005;-63
2024/04/12 07:15:41;;;;;;;9.23;2.85;;;;;;;;;;5345079;26;20075;-61
2024/04/12 07:18:11;;;;;;;12.23;2.92;;;;;;;;;;5346560;26;20000;-63
2024/04/12 07:20:40;;;;;;;8.70;2.75;;;;;;;;;;5345206;26;20032;-62
2024/04/12 07:23:10;;;;;;;11.10;2.83;;;;;;;;;;5358758;26;20313;-61
2024/04/12 07:25:39;;;;;;;11.25;2.97;;;;;;;;;;5377112;26;20011;-62
2024/04/12 07:28:06;;;;;;;9.40;2.90;;;;;;;;;;5343988;26;20008;-63
2024/04/12 07:30:32;;;;;;;11.15;2.92;;;;;;;;;;5345126;26;20424;-62
2024/04/12 07:32:58;;;;;;;6.93;2.30;;;;;;;;;;5371606;26;20015;-62
2024/04/12 07:35:25;;;;;;;8.85;2.63;;;;;;;;;;5371384;26;19997;-63
2024/04/12 07:37:54;;;;;;;13.70;2.80;;;;;;;;;;5378292;26;20036;-63
2024/04/12 07:40:20;;;;;;;7.25;2.03;;;;;;;;;;5379485;26;20011;-64
2024/04/12 07:42:46;;;;;;;6.10;2.10;;;;;;;;;;5347651;26;20019;-62
2024/04/12 07:45:16;;;;;;;11.48;2.28;;;;;;;;;;5378840;26;20004;-62
2024/04/12 07:47:52;;;;;;;5.38;2.28;;;;;;;;;;5375734;26;20410;-61
2024/04/12 07:50:21;;;;;;;6.95;1.60;;;;;;;;;;5379580;26;19996;-61
2024/04/12 07:52:50;;;;;;;8.30;1.60;;;;;;;;;;5379638;26;20000;-64
2024/04/12 07:55:23;;;;;;;4.97;1.90;;;;;;;;;;5379539;26;20011;-62
2024/04/12 07:57:52;;;;;;;8.93;2.17;;;;;;;;;;5380702;26;19996;-62
2024/04/12 08:00:27;;;;;;;5.03;1.70;;;;;;;;;;5378988;26;20008;-62
2024/04/12 08:02:55;;;;;;;;;;;;;;;;;;5352725;26;20075;-64
2024/04/12 08:05:25;;;;;;;7.78;2.10;;;;;;;;;;5344527;26;19925;-62
2024/04/12 08:07:56;;;;;;;6.65;1.63;;;;;;;;;;5343891;26;20335;-63
2024/04/12 08:10:29;;;;;;;6.28;1.92;;;;;;;;;;5344665;26;20066;-63
2024/04/12 08:12:57;;;;;;;8.27;1.90;;;;;;;;;;5353718;26;20411;-64
2024/04/12 08:15:23;;;;;;;5.35;1.70;;;;;;;;;;5379561;26;20003;-62
2024/04/12 08:17:49;;;;;;;7.47;1.70;;;;;;;;;;5356675;26;20487;-60
2024/04/12 08:20:16;;;;;;;5.70;1.55;;;;;;;;;;5380062;26;20073;-62
2024/04/12 08:22:43;;;;;;;8.50;1.70;;;;;;;;;;5371908;26;20016;-60
2024/04/12 08:25:08;;;;;;;5.20;1.52;;;;;;;;;;5374174;26;20012;-61
2024/04/12 08:27:35;;;;;;;5.50;1.63;;;;;;;;;;5380815;26;20005;-64
2024/04/12 08:30:00;;;;;;;4.65;1.20;;;;;;;;;;5380888;26;20423;-62
2024/04/12 08:32:31;;;;;;;6.68;1.38;;;;;;;;;;5373119;26;20000;-62
2024/04/12 08:35:06;;;;;;;5.55;1.38;;;;;;;;;;5381070;26;20004;-56
2024/04/12 08:37:36;;;;;;;9.73;2.03;;;;;;;;;;5374943;26;20318;-56
2024/04/12 08:40:08;;;;;;;4.47;1.55;;;;;;;;;;5381944;26;20411;-59
2024/04/12 08:42:34;;;;;;;9.15;1.75;;;;;;;;;;5369197;26;20001;-64
2024/04/12 08:45:12;;;;;;;7.90;1.83;;;;;;;;;;5368505;26;20032;-62
2024/04/12 08:47:39;;;;;;;6.60;1.67;;;;;;;;;;5352903;26;20023;-58
2024/04/12 08:50:13;;;;;;;5.60;1.65;;;;;;;;;;5376927;26;19996;-64
2024/04/12 08:52:47;;;;;;;8.40;1.80;;;;;;;;;;5370649;26;20015;-60
2024/04/12 08:55:14;;;;;;;4.75;1.65;;;;;;;;;;5359216;26;20012;-63
2024/04/12 08:57:41;;;;;;;7.68;1.73;;;;;;;;;;5380425;26;20004;-62
2024/04/12 09:00:08;;;;;;;6.35;1.88;;;;;;;;;;5374578;26;20314;-60
2024/04/12 09:02:40;;;;;;;5.50;1.60;;;;;;;;;;5379763;26;20004;-61
2024/04/12 09:05:06;;;;;;;5.15;1.50;;;;;;;;;;5382223;26;20395;-60
2024/04/12 09:07:35;;;;;;;7.05;1.90;;;;;;;;;;5381293;26;20074;-59
2024/04/12 09:10:01;;;;;;;3.85;1.38;;;;;;;;;;5381653;26;20004;-63
2024/04/12 09:12:27;;;;;;;7.72;1.65;;;;;;;;;;5382357;26;20011;-58
2024/04/12 09:14:55;;;;;;;6.88;1.60;;;;;;;;;;5376797;26;20426;-62
2024/04/12 09:17:28;;;;;;;6.20;1.60;;;;;;;;;;5379816;26;20004;-60
2024/04/12 09:19:54;;;;;;;7.43;2.13;;;;;;;;;;5364597;26;20000;-62
2024/04/12 09:22:21;;;;;;;8.15;1.95;;;;;;;;;;5348293;26;20019;-62
2024/04/12 09:24:49;;;;;;;4.68;1.65;;;;;;;;;;5370140;26;20081;-66
2024/04/12 09:27:22;;;;;;;7.60;1.67;;;;;;;;;;5380049;26;20108;-64
2024/04/12 09:32:50;;;;;;;7.43;1.85;;;;;;;;;;5369626;26;20015;-64
2024/04/12 09:32:52;;;;;;;6.70;1.60;;;;;;;;;;5380567;26;20016;-62
2024/04/12 09:35:19;;;;;;;5.00;1.73;;;;;;;;;;5380162;26;20067;-62
2024/04/12 09:37:54;;;;;;;5.28;1.50;;;;;;;;;;5379293;26;20023;-61
2024/04/12 09:40:34;;;;;;;3.78;1.42;;;;;;;;;;5372282;26;20466;-61
2024/04/12 09:43:25;;;;;;;6.10;1.67;;;;;;;;;;5380677;26;20008;-63
2024/04/12 09:45:49;;;;;;;4.28;1.63;;;;;;;;;;5371181;26;20015;-61
2024/04/12 10:38:10;;;;;;;5.55;1.50;;;;;;;;;;5376395;26;20000;-62
2024/04/12 10:40:36;;;;;;;3.67;1.40;;;;;;;;;;5348036;26;20012;-61
2024/04/12 10:43:04;;;;;;;6.45;1.73;;;;;;;;;;5359171;26;20417;-63
2024/04/12 10:45:30;;;;;;;8.45;1.70;;;;;;;;;;5344294;26;20112;-62
2024/04/12 10:47:56;;;;;;;8.82;2.05;;;;;;;;;;5372080;26;20004;-63
2024/04/12 10:50:23;;;;;;;4.43;1.65;;;;;;;;;;5372109;26;20414;-59
2024/04/12 10:52:49;;;;;;;9.70;1.90;;;;;;;;;;5379176;26;20032;-62
2024/04/12 10:55:19;;;;;;;11.88;1.77;;;;;;;;;;5378522;26;19996;-62
2024/04/12 10:57:48;;;;;;;5.22;1.55;;;;;;;;;;5359464;26;20017;-62
2024/04/12 11:00:17;;;;;;;4.60;1.58;;;;;;;;;;5345310;26;20004;-56
2024/04/12 11:02:45;;;;;;;5.55;1.50;;;;;;;;;;5346856;26;20412;-59
2024/04/12 11:07:43;;;;;;;10.05;1.55;;;;;;;;;;5372251;26;20001;-57
2024/04/12 11:10:22;;;;;;;13.50;1.52;;;;;;;;;;5369916;26;20825;-62
2024/04/12 11:12:51;;;;;;;8.15;1.33;;;;;;;;;;5343192;26;20005;-62
2024/04/12 11:31:39;;;;;;;5.60;1.25;;;;;;;;;;5360813;26;20008;-63
2024/04/12 11:34:06;;;;;;;5.22;1.48;;;;;;;;;;5347915;26;20389;-63
2024/04/12 11:36:33;;;;;;;8.70;1.75;;;;;;;;;;5343241;26;20074;-62
2024/04/12 11:39:17;;;;;;;1.63;1.20;;;;;;;;;;5358557;26;20041;-60
2024/04/12 11:41:49;;;;;;;6.30;1.50;;;;;;;;;;5349055;26;20036;-61
2024/04/12 11:44:17;;;;;;;8.23;1.45;;;;;;;;;;5366008;26;20004;-60
2024/04/12 11:46:46;;;;;;;5.28;1.30;;;;;;;;;;5379144;26;20006;-62
2024/04/12 11:49:12;;;;;;;3.75;1.10;;;;;;;;;;5376500;26;20028;-59
2024/04/12 11:51:38;;;;;;;4.05;1.60;;;;;;;;;;5365786;26;19996;-63
2024/04/12 11:54:05;;;;;;;7.78;1.45;;;;;;;;;;5360180;26;20020;-61
2024/04/12 11:56:31;;;;;;;5.68;1.38;;;;;;;;;;5350381;26;20015;-63
2024/04/12 11:58:58;;;;;;;6.22;1.40;;;;;;;;;;5380000;26;20039;-63
2024/04/12 12:01:23;;;;;;;8.52;1.40;;;;;;;;;;5373959;26;20008;-63
2024/04/12 12:03:49;;;;;;;4.97;1.80;;;;;;;;;;5342139;26;20012;-62
2024/04/12 12:06:16;;;;;;;6.28;1.67;;;;;;;;;;5347025;26;20009;-61
2024/04/12 12:08:41;;;;;;;8.73;1.60;;;;;;;;;;5349098;26;20001;-63
2024/04/12 12:11:10;;;;;;;5.57;1.60;;;;;;;;;;5349118;26;20005;-62
2024/04/12 12:13:36;;;;;;;11.38;1.90;;;;;;;;;;5364549;26;20004;-61
2024/04/12 12:16:03;;;;;;;3.88;1.45;;;;;;;;;;5360110;26;20362;-63
2024/04/12 12:18:29;;;;;;;7.25;1.75;;;;;;;;;;5378569;26;20078;-57
2024/04/12 12:20:56;;;;;;;6.45;1.50;;;;;;;;;;5353266;26;20075;-64
2024/04/12 12:23:21;;;;;;;4.10;1.40;;;;;;;;;;5344881;26;20024;-63
2024/04/12 12:25:51;;;;;;;9.43;1.90;;;;;;;;;;5348508;26;20005;-64
2024/04/12 12:28:17;;;;;;;6.07;1.70;;;;;;;;;;5348040;26;20864;-63
2024/04/12 12:30:47;;;;;;;7.07;1.90;;;;;;;;;;5353680;26;20019;-64
2024/04/12 12:33:13;;;;;;;8.38;1.92;;;;;;;;;;5346739;26;20490;-61
2024/04/12 12:35:39;;;;;;;8.23;1.60;;;;;;;;;;5350353;26;20005;-66
2024/04/12 12:38:05;;;;;;;6.07;1.52;;;;;;;;;;5347612;26;20363;-75
2024/04/12 12:40:30;;;;;;;5.55;1.77;;;;;;;;;;5373170;26;20004;-67
2024/04/12 12:42:55;;;;;;;5.13;1.65;;;;;;;;;;5381364;26;20005;-68
2024/04/12 12:45:21;;;;;;;10.02;1.60;;;;;;;;;;5382413;26;20108;-64
2024/04/12 12:47:47;;;;;;;8.15;1.65;;;;;;;;;;5381723;26;20004;-67
2024/04/12 12:50:19;;;;;;;5.25;1.50;;;;;;;;;;5329879;26;20295;-67
2024/04/12 12:52:51;;;;;;;3.53;1.90;;;;;;;;;;5381299;26;20067;-69
2024/04/12 12:55:21;;;;;;;6.18;1.50;;;;;;;;;;5353724;26;20012;-64
2024/04/12 12:57:47;;;;;;;3.88;1.42;;;;;;;;;;5346125;26;20380;-72
2024/04/12 13:00:19;;;;;;;4.35;1.55;;;;;;;;;;5358103;26;20015;-70
2024/04/12 13:02:50;;;;;;;10.50;2.28;;;;;;;;;;5380850;26;20004;-69
2024/04/12 13:05:17;;;;;;;7.40;1.77;;;;;;;;;;5381590;26;20307;-65
2024/04/12 13:07:43;;;;;;;7.03;1.50;;;;;;;;;;5379569;26;20268;-73
2024/04/12 13:10:12;;;;;;;4.57;1.58;;;;;;;;;;5374482;26;20393;-64
2024/04/12 13:12:38;;;;;;;7.30;1.98;;;;;;;;;;5378956;26;19996;-63
2024/04/12 13:15:04;;;;;;;4.63;1.30;;;;;;;;;;5349355;26;20005;-65
2024/04/12 13:17:36;;;;;;;9.43;1.83;;;;;;;;;;5346132;26;20005;-64
2024/04/12 13:20:06;;;;;;;5.78;1.30;;;;;;;;;;5345360;26;20072;-67
2024/04/12 13:22:32;;;;;;;5.25;1.42;;;;;;;;;;5346375;26;20045;-64
2024/04/12 13:24:58;;;;;;;4.72;1.20;;;;;;;;;;5351646;26;21158;-66
2024/04/12 13:27:23;;;;;;;9.70;1.52;;;;;;;;;;5344115;26;19996;-64
2024/04/12 13:29:49;;;;;;;12.90;4.25;;;;;;;;;;5345453;26;20005;-65
2024/04/12 13:32:14;;;;;;;5.57;1.70;;;;;;;;;;5344710;26;20001;-68
2024/04/12 13:34:40;;;;;;;3.88;1.08;;;;;;;;;;5321490;26;20419;-62
2024/04/12 13:37:06;;;;;;;6.43;1.30;;;;;;;;;;5364554;26;20000;-61
2024/04/12 13:39:34;;;;;;;6.65;1.30;;;;;;;;;;5371234;26;20023;-62
2024/04/12 13:42:03;;;;;;;6.35;1.13;;;;;;;;;;5373699;26;20012;-64
2024/04/12 13:52:43;;;;;;;6.70;1.13;;;;;;;;;;5380426;26;19957;-63
2024/04/12 13:55:11;;;;;;;2.95;1.00;;;;;;;;;;5380703;26;20092;-60
2024/04/12 13:57:40;;;;;;;9.70;1.63;;;;;;;;;;5380832;26;20000;-64
2024/04/12 14:00:09;;;;;;;3.95;1.10;;;;;;;;;;5380489;26;20023;-64
2024/04/12 14:02:35;;;;;;;3.20;1.10;;;;;;;;;;5380604;26;20272;-57
2024/04/12 14:05:02;;;;;;;4.60;0.90;;;;;;;;;;5368766;26;20079;-63
2024/04/12 14:07:33;;;;;;;12.10;1.20;;;;;;;;;;5364344;26;20000;-62
2024/04/12 14:10:04;;;;;;;9.57;1.15;;;;;;;;;;5380673;26;20001;-64
2024/04/12 14:12:30;;;;;;;9.45;1.48;;;;;;;;;;5379228;26;20000;-65
2024/04/12 14:14:55;;;;;;;3.58;1.20;;;;;;;;;;5378525;26;20027;-60
2024/04/12 14:17:22;;;;;;;2.70;1.05;;;;;;;;;;5374256;26;20004;-63
2024/04/12 14:19:48;;;;;;;5.95;1.08;;;;;;;;;;5379613;26;20338;-63
2024/04/12 14:22:13;;;;;;;8.35;1.05;;;;;;;;;;5372564;26;20078;-64
2024/04/12 14:25:01;;;;;;;7.40;0.98;;;;;;;;;;5381583;26;20004;-61
2024/04/12 14:27:31;;;;;;;5.05;1.00;;;;;;;;;;5351582;26;20020;-64
2024/04/12 14:29:56;;;;;;;6.40;1.17;;;;;;;;;;5346589;26;20001;-62
2024/04/12 14:32:22;;;;;;;4.47;0.80;;;;;;;;;;5374601;26;20066;-62
2024/04/12 14:34:51;;;;;;;2.03;0.93;;;;;;;;;;5372224;26;20036;-63
2024/04/12 14:37:18;;;;;;;1.83;0.88;;;;;;;;;;5350901;26;20408;-62
2024/04/12 14:39:43;;;;;;;4.68;0.90;;;;;;;;;;5345731;26;20009;-64
2024/04/12 14:42:15;;;;;;;6.35;1.23;;;;;;;;;;5371893;26;20078;-65
2024/04/12 14:44:40;;;;;;;4.82;1.20;;;;;;;;;;5353896;26;20071;-65
2024/04/12 14:47:06;;;;;;;5.55;2.05;;;;;;;;;;5343593;26;20001;-65
2024/04/12 14:49:31;;;;;;;4.63;1.20;;;;;;;;;;5346614;26;20384;-65
2024/04/12 14:51:57;;;;;;;6.18;1.10;;;;;;;;;;5370919;26;20081;-65
2024/04/12 14:54:22;;;;;;;3.88;1.25;;;;;;;;;;5376972;26;20015;-66
2024/04/12 14:56:48;;;;;;;5.78;1.20;;;;;;;;;;5348308;26;20016;-65
2024/04/12 14:59:14;;;;;;;7.30;1.48;;;;;;;;;;5343437;26;20047;-64
2024/04/12 15:01:39;;;;;;;3.30;1.13;;;;;;;;;;5342455;26;20397;-64
2024/04/12 15:55:55;;;;;;;5.22;1.58;;;;;;;;;;5373114;26;20039;-66
2024/04/12 16:12:11;;;;;;;5.50;1.90;;;;;;;;;;5345106;26;20016;-66
2024/04/12 16:14:36;;;;;;;4.25;1.92;;;;;;;;;;5344087;26;20009;-68
2024/04/12 16:17:02;;;;;;;2.80;1.50;;;;;;;;;;5367357;26;20011;-67
2024/04/12 16:19:27;;;;;;;3.42;1.52;;;;;;;;;;5379758;26;20324;-67
2024/04/12 16:21:53;;;;;;;2.78;1.70;;;;;;;;;;5378814;26;20016;-67
2024/04/12 16:24:19;;;;;;;4.05;1.80;;;;;;;;;;5357388;26;20087;-69
2024/04/12 16:26:44;;;;;;;5.03;2.38;;;;;;;;;;5346950;26;20055;-64
2024/04/12 16:29:09;;;;;;;4.38;1.83;;;;;;;;;;5345015;26;20347;-66
2024/04/12 16:31:38;;;;;;;3.13;1.55;;;;;;;;;;5343736;26;20008;-61
2024/04/12 16:34:04;;;;;;;4.70;1.70;;;;;;;;;;5357396;26;20260;-68
2024/04/12 16:36:30;;;;;;;3.33;1.73;;;;;;;;;;5377007;26;19996;-66
2024/04/12 16:38:57;;;;;;;2.88;1.70;;;;;;;;;;5378855;26;20000;-66
2024/04/12 16:41:23;;;;;;;3.85;1.63;;;;;;;;;;5374385;26;20000;-64
2024/04/12 16:43:48;;;;;;;4.25;1.80;;;;;;;;;;5382970;26;20000;-65
2024/04/12 16:46:14;;;;;;;5.20;2.25;;;;;;;;;;5383684;26;20320;-66
2024/04/12 16:48:39;;;;;;;7.78;2.30;;;;;;;;;;5382552;26;20015;-66
2024/04/12 16:51:05;;;;;;;4.57;2.17;;;;;;;;;;5382168;26;20082;-69
2024/04/12 16:53:35;;;;;;;6.38;2.10;;;;;;;;;;5383087;26;20059;-66
2024/04/12 16:56:01;;;;;;;4.75;1.90;;;;;;;;;;5380333;26;20307;-66
2024/04/12 16:58:27;;;;;;;3.53;2.00;;;;;;;;;;5382290;26;19996;-66
2024/04/12 17:00:52;;;;;;;4.63;1.73;;;;;;;;;;5364330;26;20075;-65
2024/04/12 17:03:18;;;;;;;3.42;1.63;;;;;;;;;;5348115;26;20001;-64
2024/04/12 17:05:46;;;;;;;4.30;1.75;;;;;;;;;;5348628;26;20004;-65
2024/04/12 17:08:12;;;;;;;2.15;1.15;;;;;;;;;;5347376;26;20009;-65
2024/04/12 17:10:37;;;;;;;7.30;2.53;;;;;;;;;;5349000;26;20012;-66
2024/04/12 17:13:04;;;;;;;4.22;2.03;;;;;;;;;;5382580;26;20028;-67